North Little Rock, AR (72117)

7:59 PM CST on January 30, 2015 (GMT -0600)
Central Business Equipment | Change Station
CLOSE
Current Station
Personal Weather Station
Location: Sherwood, AR
Elevation: 288 ft
Nearby Weather Stations

Elev 288 ft 34.82 °N, 92.20 °W | Updated 4 seconds ago

Partly Cloudy
Partly Cloudy
39.0 °F
Feels Like 39 °F
N
0.0
Wind Variable Wind from WNW
Gusts 0.0 mph

Today
High -- | Low -- °F
--% Chance of Precip.
Yesterday
High -- | Low -- °F
Precip. -- in
7:08 AM 5:35 PM
Waxing Gibbous, 86% visible
Pressure 30.46 in
Visibility 10.0 miles
Clouds Scattered Clouds 15000 ft
Scattered Clouds 25000 ft
Windchill 39 °F
Dew Point 28 °F
Humidity 63%
Rainfall 0.00 in
Snow Depth Not available.
UV 0 out of 12
Pollen 5.20 out of 12
Air Quality Not available.
Flu Activity Not available.
METAR KLIT 310153Z 04005KT 10SM SCT150 SCT250 04/M04 A3045 RMK AO2 SLP315 T00441039

More Conditions Fewer Conditions

Pressure 30.46 in
Visibility 10.0 miles
Clouds Scattered Clouds 15000 ft
Scattered Clouds 25000 ft
Windchill 39 °F
Dew Point 28 °F
Humidity 63%
Rainfall 0.00 in
Snow Depth Not available.
UV 0 out of 12
Pollen 5.20 out of 12
Air Quality Not available.
Flu Activity Not available.
METAR KLIT 310153Z 04005KT 10SM SCT150 SCT250 04/M04 A3045 RMK AO2 SLP315 T00441039

More Conditions Fewer Conditions

10-Day Weather Forecast

Almanac

Astronomy

Jan. 30, 2015 Rise Set
Actual Time
Civil Twilight
Nautical Twilight
Astronomical Twilight
Moon
Length of Visible Light
Length of Day
Tomorrow will be .
, % of the Moon is Illuminated

Today's Extremes

State Highs State Lows

Community

WunderPhotos

Upload Photos

1,791,964 photos uploaded!

WunderBlogs® & News

Nearby

Air Quality

  Air Quality AQ Index Pollutant
Not available.

Snow Depth

Station Depth Elevation

Earthquake Activity

City Distance Mag. Time & Date
Minimum magnitude displayed is 2.5.

Coastal Water Temperatures

Place Temperature

Nearby Weather Stations